Time;durP1;ratioP1;P1;durP2;ratioP2;P2;SDS_P1;SDS_P2;PMS_P1;PMS_P2;Temp;Humidity;BMP_temperature;BMP_pressure;BME280_temperature;BME280_humidity;BME280_pressure;Samples;Min_cycle;Max_cycle;Signal;HPM_P1;HPM_P2
2021/03/24 00:00:26;;;;;;;20.77;18.17;;;;;;;;;;5024148;28;20465;-11
2021/03/24 00:02:54;;;;;;;17.83;16.13;;;;;;;;;;5024500;28;20444;-12
2021/03/24 00:05:23;;;;;;;18.80;16.90;;;;;;;;;;5024467;28;20475;-11
2021/03/24 00:07:50;;;;;;;20.27;17.10;;;;;;;;;;5023874;28;20435;-12
2021/03/24 00:10:17;;;;;;;22.87;20.50;;;;;;;;;;5025477;28;20804;-12
2021/03/24 00:12:44;;;;;;;20.73;18.63;;;;;;;;;;5024714;28;20448;-13
2021/03/24 00:15:12;;;;;;;21.03;18.80;;;;;;;;;;5024703;28;20455;-13
2021/03/24 00:17:40;;;;;;;21.27;18.97;;;;;;;;;;5024676;28;20498;-12
2021/03/24 00:20:08;;;;;;;20.90;18.67;;;;;;;;;;5024642;28;20692;-12
2021/03/24 00:22:36;;;;;;;23.50;20.07;;;;;;;;;;5024120;28;20744;-11
2021/03/24 00:25:03;;;;;;;22.60;18.13;;;;;;;;;;5025788;28;20440;-11
2021/03/24 00:27:30;;;;;;;27.43;20.70;;;;;;;;;;5026415;28;20513;-12
2021/03/24 00:29:57;;;;;;;25.23;19.83;;;;;;;;;;5008669;28;20493;-12
2021/03/24 00:32:24;;;;;;;24.23;18.67;;;;;;;;;;5007653;28;20454;-12
2021/03/24 00:34:51;;;;;;;22.73;19.13;;;;;;;;;;5011003;28;20455;-12
2021/03/24 00:37:19;;;;;;;22.50;19.27;;;;;;;;;;5011133;28;20494;-12
2021/03/24 00:39:46;;;;;;;22.90;18.97;;;;;;;;;;5029744;28;20439;-13
2021/03/24 00:42:14;;;;;;;20.27;18.10;;;;;;;;;;5028762;28;20598;-12
2021/03/24 00:44:41;;;;;;;22.47;18.67;;;;;;;;;;5029543;28;20439;-12
2021/03/24 00:47:08;;;;;;;24.50;19.10;;;;;;;;;;5010092;28;20969;-12
2021/03/24 00:49:35;;;;;;;21.60;17.40;;;;;;;;;;5028214;28;20904;-12
2021/03/24 00:52:08;;;;;;;19.57;17.47;;;;;;;;;;5028731;28;20530;-12
2021/03/24 00:54:38;;;;;;;22.53;20.30;;;;;;;;;;5029534;28;20446;-13
2021/03/24 00:57:07;;;;;;;21.20;18.70;;;;;;;;;;5011610;28;20474;-13
2021/03/24 00:59:36;;;;;;;23.63;18.93;;;;;;;;;;5010633;28;20806;-12
2021/03/24 01:02:04;;;;;;;20.33;16.90;;;;;;;;;;5027943;28;20435;-13
2021/03/24 01:04:31;;;;;;;18.97;16.97;;;;;;;;;;5011403;28;20614;-13
2021/03/24 01:06:59;;;;;;;18.77;16.70;;;;;;;;;;5027607;28;20435;-12
2021/03/24 01:09:27;;;;;;;26.37;17.80;;;;;;;;;;5010544;28;20475;-13
2021/03/24 01:11:54;;;;;;;18.87;16.97;;;;;;;;;;5010419;28;20450;-12
2021/03/24 01:14:21;;;;;;;19.70;16.57;;;;;;;;;;5028614;28;20450;-13
2021/03/24 01:16:53;;;;;;;20.30;18.07;;;;;;;;;;5010864;28;20719;-12
2021/03/24 01:19:20;;;;;;;22.63;18.53;;;;;;;;;;5028267;28;20463;-12
2021/03/24 01:21:47;;;;;;;19.93;17.20;;;;;;;;;;5027833;28;20436;-12
2021/03/24 01:24:14;;;;;;;19.30;17.40;;;;;;;;;;5027806;28;20569;-13
2021/03/24 01:26:41;;;;;;;17.77;16.00;;;;;;;;;;5027827;28;20975;-12
2021/03/24 01:29:08;;;;;;;18.83;17.03;;;;;;;;;;5010191;28;20542;-12
2021/03/24 01:31:36;;;;;;;18.70;16.13;;;;;;;;;;5010758;28;20780;-13
2021/03/24 01:34:03;;;;;;;19.20;16.70;;;;;;;;;;5028812;28;20739;-12
2021/03/24 01:36:31;;;;;;;18.40;16.60;;;;;;;;;;5011272;28;20435;-12
2021/03/24 01:38:58;;;;;;;18.33;16.47;;;;;;;;;;5011373;28;20447;-12
2021/03/24 01:41:26;;;;;;;27.03;20.93;;;;;;;;;;5010448;28;20717;-12
2021/03/24 01:44:10;;;;;;;26.50;19.70;;;;;;;;;;5011417;28;20447;-12
2021/03/24 01:46:45;;;;;;;22.43;18.13;;;;;;;;;;5010834;28;20463;-13
2021/03/24 01:49:21;;;;;;;22.80;19.57;;;;;;;;;;5028992;28;20463;-12
2021/03/24 01:51:49;;;;;;;17.70;15.90;;;;;;;;;;5010553;28;20454;-12
2021/03/24 01:54:22;;;;;;;21.73;19.40;;;;;;;;;;5028034;28;20439;-12
2021/03/24 01:56:53;;;;;;;19.57;17.23;;;;;;;;;;5028335;28;20519;-13
2021/03/24 01:59:20;;;;;;;19.77;17.10;;;;;;;;;;5011337;28;20471;-12
2021/03/24 02:01:48;;;;;;;21.40;17.47;;;;;;;;;;5010264;28;20455;-12
2021/03/24 02:04:15;;;;;;;19.93;17.00;;;;;;;;;;5027938;28;20450;-13
2021/03/24 02:06:45;;;;;;;22.60;17.40;;;;;;;;;;5010182;28;20499;-13
2021/03/24 02:09:22;;;;;;;20.83;17.80;;;;;;;;;;5011747;28;20502;-12
2021/03/24 02:11:54;;;;;;;35.50;22.40;;;;;;;;;;5028571;28;20839;-12
2021/03/24 02:14:24;;;;;;;31.50;18.60;;;;;;;;;;5009437;28;20544;-9
2021/03/24 02:16:53;;;;;;;36.80;23.80;;;;;;;;;;4993940;28;20870;-9
2021/03/24 02:19:38;;;;;;;41.63;25.43;;;;;;;;;;5011460;28;20859;-10
2021/03/24 02:22:06;;;;;;;30.27;21.87;;;;;;;;;;5013703;28;20940;-10
2021/03/24 02:24:40;;;;;;;30.80;21.97;;;;;;;;;;5014754;28;20786;-9
2021/03/24 02:27:09;;;;;;;31.00;20.07;;;;;;;;;;5013909;28;20514;-8
2021/03/24 02:29:38;;;;;;;23.97;17.83;;;;;;;;;;4996096;28;20498;-10
2021/03/24 02:32:31;;;;;;;19.30;16.97;;;;;;;;;;5014093;28;20463;-11
2021/03/24 02:35:00;;;;;;;21.93;17.37;;;;;;;;;;4995091;28;20838;-9
2021/03/24 02:37:41;;;;;;;24.90;17.07;;;;;;;;;;5012094;28;20534;-10
2021/03/24 02:40:10;;;;;;;19.47;17.30;;;;;;;;;;4995121;28;20463;-9
2021/03/24 02:42:39;;;;;;;18.20;15.70;;;;;;;;;;5012010;28;20443;-10
2021/03/24 02:45:07;;;;;;;19.37;17.37;;;;;;;;;;5011818;28;20459;-9
2021/03/24 02:47:34;;;;;;;18.30;16.40;;;;;;;;;;4992073;28;20436;-10
2021/03/24 02:50:01;;;;;;;19.63;17.60;;;;;;;;;;4994826;28;20471;-8
2021/03/24 02:52:28;;;;;;;19.20;15.83;;;;;;;;;;4995547;28;20443;-10
2021/03/24 02:54:56;;;;;;;19.60;17.70;;;;;;;;;;5012869;28;20479;-10
2021/03/24 02:57:23;;;;;;;19.33;16.70;;;;;;;;;;5012117;28;20470;-9
2021/03/24 02:59:52;;;;;;;19.30;16.20;;;;;;;;;;5012694;28;20760;-10
2021/03/24 03:02:21;;;;;;;18.40;16.50;;;;;;;;;;5011133;28;20744;-10
2021/03/24 03:04:49;;;;;;;18.30;16.10;;;;;;;;;;5011832;28;20470;-10
2021/03/24 03:07:19;;;;;;;24.40;17.60;;;;;;;;;;5011476;28;20787;-10
2021/03/24 03:09:49;;;;;;;20.70;17.47;;;;;;;;;;4994355;28;20529;-10
2021/03/24 03:12:20;;;;;;;21.00;17.20;;;;;;;;;;5012610;28;21083;-10
2021/03/24 03:14:55;;;;;;;21.50;17.27;;;;;;;;;;5012035;28;20612;-9
2021/03/24 03:17:26;;;;;;;18.83;17.07;;;;;;;;;;5011357;28;20459;-9
2021/03/24 03:20:07;;;;;;;21.77;17.07;;;;;;;;;;5011605;28;20448;-9
2021/03/24 03:22:36;;;;;;;18.23;16.40;;;;;;;;;;5014981;28;20756;-9
2021/03/24 03:25:08;;;;;;;18.90;17.03;;;;;;;;;;4995670;28;20793;-9
2021/03/24 03:27:36;;;;;;;27.93;17.13;;;;;;;;;;4994901;28;20442;-10
2021/03/24 03:30:06;;;;;;;22.17;18.90;;;;;;;;;;5010415;28;20698;-9
2021/03/24 03:32:34;;;;;;;18.30;16.40;;;;;;;;;;5010324;28;20439;-9
2021/03/24 03:35:02;;;;;;;18.90;16.90;;;;;;;;;;5011284;28;20436;-9
2021/03/24 03:37:31;;;;;;;21.60;18.63;;;;;;;;;;5012053;28;20436;-9
2021/03/24 03:39:58;;;;;;;18.70;16.47;;;;;;;;;;4993194;28;20495;-10
2021/03/24 03:42:25;;;;;;;18.67;16.70;;;;;;;;;;5012105;28;20771;-9
2021/03/24 03:44:53;;;;;;;17.87;15.97;;;;;;;;;;5012827;28;20766;-10
2021/03/24 03:47:21;;;;;;;18.80;16.77;;;;;;;;;;5011857;28;20453;-9
2021/03/24 03:49:48;;;;;;;19.20;16.20;;;;;;;;;;5013060;28;20478;-9
2021/03/24 03:52:25;;;;;;;19.30;17.40;;;;;;;;;;5011203;28;20443;-10
2021/03/24 03:54:55;;;;;;;19.23;17.20;;;;;;;;;;5011200;28;20564;-10
2021/03/24 03:57:27;;;;;;;23.40;18.67;;;;;;;;;;4991409;28;20801;-9
2021/03/24 03:59:56;;;;;;;19.33;16.80;;;;;;;;;;5009554;28;20521;-9
2021/03/24 04:02:28;;;;;;;17.63;15.83;;;;;;;;;;5010369;28;20795;-9
2021/03/24 04:05:00;;;;;;;17.50;15.67;;;;;;;;;;5009243;28;20752;-10
2021/03/24 04:07:30;;;;;;;19.13;15.93;;;;;;;;;;5011008;28;20806;-9
2021/03/24 04:09:57;;;;;;;19.87;16.63;;;;;;;;;;4996225;28;20456;-9
2021/03/24 04:12:25;;;;;;;19.77;15.87;;;;;;;;;;5013588;28;20454;-9
2021/03/24 04:14:52;;;;;;;25.53;19.53;;;;;;;;;;5014430;28;20439;-9
2021/03/24 04:17:21;;;;;;;22.33;16.87;;;;;;;;;;5014208;28;20435;-9
2021/03/24 04:19:50;;;;;;;18.87;16.27;;;;;;;;;;4993158;28;20442;-9
2021/03/24 04:22:20;;;;;;;20.80;18.60;;;;;;;;;;5013187;28;20440;-9
2021/03/24 04:24:49;;;;;;;20.57;17.77;;;;;;;;;;5011883;28;20786;-9
2021/03/24 04:27:18;;;;;;;19.53;17.50;;;;;;;;;;5013225;28;20563;-9
2021/03/24 04:29:47;;;;;;;18.67;15.77;;;;;;;;;;5012049;28;20510;-10
2021/03/24 04:32:14;;;;;;;20.20;18.10;;;;;;;;;;5014135;28;20587;-9
2021/03/24 04:34:42;;;;;;;20.13;18.03;;;;;;;;;;5012519;28;20879;-9
2021/03/24 04:37:14;;;;;;;18.50;16.60;;;;;;;;;;5012770;28;20446;-8
2021/03/24 04:39:44;;;;;;;20.93;18.40;;;;;;;;;;5010988;28;20609;-10
2021/03/24 04:42:12;;;;;;;24.47;18.93;;;;;;;;;;5012257;28;20917;-8
2021/03/24 04:44:40;;;;;;;23.30;19.20;;;;;;;;;;5013799;28;20445;-9
2021/03/24 04:47:10;;;;;;;22.43;19.23;;;;;;;;;;5011690;28;20474;-9
2021/03/24 04:49:50;;;;;;;25.53;19.10;;;;;;;;;;5013068;28;20468;-9
2021/03/24 04:52:18;;;;;;;22.30;18.53;;;;;;;;;;5010552;28;20803;-9
2021/03/24 04:54:47;;;;;;;22.90;17.90;;;;;;;;;;5009919;28;20870;-10
2021/03/24 04:57:17;;;;;;;21.73;16.83;;;;;;;;;;5010294;28;20823;-9
2021/03/24 04:59:45;;;;;;;19.07;16.77;;;;;;;;;;5011031;28;20435;-10
2021/03/24 05:02:14;;;;;;;20.93;18.57;;;;;;;;;;5009561;28;20489;-10
2021/03/24 05:04:43;;;;;;;20.53;17.70;;;;;;;;;;5010496;28;20439;-9
2021/03/24 05:07:14;;;;;;;21.60;18.03;;;;;;;;;;5011795;28;20749;-10
2021/03/24 05:09:42;;;;;;;19.10;17.20;;;;;;;;;;4992135;28;20475;-9
2021/03/24 05:12:14;;;;;;;26.03;18.63;;;;;;;;;;5010199;28;20450;-10
2021/03/24 05:14:44;;;;;;;20.77;18.30;;;;;;;;;;5012615;28;20749;-10
2021/03/24 05:17:16;;;;;;;22.70;18.90;;;;;;;;;;5009024;28;21015;-11
2021/03/24 05:19:44;;;;;;;21.33;18.90;;;;;;;;;;5005586;28;20436;-9
2021/03/24 05:22:17;;;;;;;20.23;18.03;;;;;;;;;;4988246;28;20432;-9
2021/03/24 05:24:46;;;;;;;20.67;17.23;;;;;;;;;;5008884;28;20479;-10
2021/03/24 05:27:17;;;;;;;25.50;18.93;;;;;;;;;;5007489;28;20470;-10
2021/03/24 05:29:46;;;;;;;21.47;18.70;;;;;;;;;;4987638;28;20559;-9
2021/03/24 05:32:16;;;;;;;26.07;19.60;;;;;;;;;;4988103;28;20433;-10
2021/03/24 05:34:44;;;;;;;26.50;20.33;;;;;;;;;;5009453;28;20440;-10
2021/03/24 05:37:12;;;;;;;23.30;18.77;;;;;;;;;;5005884;28;21121;-9
2021/03/24 05:39:39;;;;;;;26.63;20.17;;;;;;;;;;4986912;28;20444;-10
2021/03/24 05:42:12;;;;;;;22.83;19.83;;;;;;;;;;5002581;28;20466;-10
2021/03/24 05:44:45;;;;;;;23.20;19.90;;;;;;;;;;5004753;28;20463;-10
2021/03/24 05:47:20;;;;;;;23.17;19.07;;;;;;;;;;5004824;28;20479;-10
2021/03/24 05:49:50;;;;;;;25.90;20.30;;;;;;;;;;5005183;28;20576;-10
2021/03/24 05:52:34;;;;;;;26.10;19.07;;;;;;;;;;5003337;28;20443;-9
2021/03/24 05:55:17;;;;;;;25.70;18.60;;;;;;;;;;5002246;28;20455;-10
2021/03/24 05:57:48;;;;;;;23.93;17.90;;;;;;;;;;4981911;28;20470;-9
2021/03/24 06:00:23;;;;;;;24.10;17.77;;;;;;;;;;5001618;28;21102;-9
2021/03/24 06:02:58;;;;;;;23.57;18.80;;;;;;;;;;5000131;28;20443;-9
2021/03/24 06:05:27;;;;;;;26.43;19.70;;;;;;;;;;4998135;28;20565;-9
2021/03/24 06:08:04;;;;;;;22.30;17.77;;;;;;;;;;4997504;28;20442;-9
2021/03/24 06:10:55;;;;;;;28.90;19.23;;;;;;;;;;4999060;28;20463;-9
2021/03/24 06:13:46;;;;;;;24.83;19.07;;;;;;;;;;4977497;28;20459;-9
2021/03/24 06:16:28;;;;;;;22.30;18.30;;;;;;;;;;4994097;28;20447;-11
2021/03/24 06:19:16;;;;;;;21.40;17.30;;;;;;;;;;4981463;28;20463;-9
2021/03/24 06:21:46;;;;;;;18.97;16.97;;;;;;;;;;4993907;28;20662;-9
2021/03/24 06:24:26;;;;;;;19.37;17.40;;;;;;;;;;4992584;28;20875;-10
2021/03/24 06:27:14;;;;;;;19.27;17.03;;;;;;;;;;4992457;28;20846;-9
2021/03/24 06:29:45;;;;;;;21.13;18.70;;;;;;;;;;4944656;28;20681;-9
2021/03/24 06:32:26;;;;;;;22.40;17.83;;;;;;;;;;4971989;28;20502;-10
2021/03/24 06:35:05;;;;;;;21.23;18.93;;;;;;;;;;4983686;28;20850;-9
2021/03/24 06:37:42;;;;;;;24.23;18.23;;;;;;;;;;4984778;28;20487;-9
2021/03/24 06:40:15;;;;;;;24.33;18.10;;;;;;;;;;4990254;28;20659;-9
2021/03/24 06:42:47;;;;;;;24.70;17.93;;;;;;;;;;4968316;28;20443;-9
2021/03/24 06:45:24;;;;;;;24.17;18.60;;;;;;;;;;4986975;28;20522;-8
2021/03/24 06:47:54;;;;;;;23.77;18.60;;;;;;;;;;4986934;28;20637;-9
2021/03/24 06:50:36;;;;;;;27.37;19.43;;;;;;;;;;4985759;28;20722;-10
2021/03/24 06:53:13;;;;;;;25.60;21.70;;;;;;;;;;4990603;28;21284;-9
2021/03/24 06:56:04;;;;;;;25.87;20.30;;;;;;;;;;4991805;28;20447;-9
2021/03/24 06:58:49;;;;;;;25.13;19.77;;;;;;;;;;5008503;28;20450;-10
2021/03/24 07:01:28;;;;;;;29.33;22.60;;;;;;;;;;5005605;28;20555;-10
2021/03/24 07:04:01;;;;;;;20.63;18.10;;;;;;;;;;5004750;28;20488;-9
2021/03/24 07:06:33;;;;;;;28.67;20.30;;;;;;;;;;5007688;28;21095;-10
2021/03/24 07:09:05;;;;;;;22.90;19.17;;;;;;;;;;4993388;28;20455;-10
2021/03/24 07:11:44;;;;;;;27.27;21.70;;;;;;;;;;5023687;28;20449;-10
2021/03/24 07:14:15;;;;;;;23.50;20.40;;;;;;;;;;5023580;28;20542;-10
2021/03/24 07:16:57;;;;;;;27.47;20.73;;;;;;;;;;5023398;28;20453;-10
2021/03/24 07:19:42;;;;;;;29.10;19.33;;;;;;;;;;5020097;28;20461;-9
2021/03/24 07:22:19;;;;;;;25.00;19.33;;;;;;;;;;5020612;28;20770;-10
2021/03/24 07:24:56;;;;;;;23.53;20.53;;;;;;;;;;5017396;28;20491;-9
2021/03/24 07:27:41;;;;;;;24.70;22.00;;;;;;;;;;5019369;28;20437;-8
2021/03/24 07:30:18;;;;;;;25.10;20.63;;;;;;;;;;5017372;28;20524;-11
2021/03/24 07:32:49;;;;;;;33.20;28.20;;;;;;;;;;4995124;28;20464;-11
2021/03/24 07:35:34;;;;;;;36.40;23.63;;;;;;;;;;5005585;28;20469;-11
2021/03/24 07:38:11;;;;;;;31.73;20.93;;;;;;;;;;5018006;28;20488;-11
2021/03/24 07:41:00;;;;;;;27.43;21.53;;;;;;;;;;4985567;28;20829;-11
2021/03/24 07:43:41;;;;;;;27.27;19.90;;;;;;;;;;4983913;28;20454;-11
2021/03/24 07:46:27;;;;;;;26.57;21.30;;;;;;;;;;4983380;28;20565;-10
2021/03/24 07:49:06;;;;;;;27.73;22.23;;;;;;;;;;4982782;28;20458;-10
2021/03/24 07:51:56;;;;;;;31.00;23.40;;;;;;;;;;4981569;28;20515;-10
2021/03/24 07:54:26;;;;;;;25.57;21.47;;;;;;;;;;4983898;28;20435;-11
2021/03/24 07:56:58;;;;;;;24.43;20.50;;;;;;;;;;4985972;28;20454;-11
2021/03/24 07:59:30;;;;;;;28.33;22.57;;;;;;;;;;4984919;28;20443;-11
2021/03/24 08:02:02;;;;;;;27.53;21.97;;;;;;;;;;4979621;28;20792;-11
2021/03/24 08:04:42;;;;;;;26.50;22.03;;;;;;;;;;4980116;28;20439;-10
2021/03/24 08:07:14;;;;;;;27.03;22.50;;;;;;;;;;4985008;28;20466;-10
2021/03/24 08:09:48;;;;;;;23.90;21.27;;;;;;;;;;5003211;28;20473;-10
2021/03/24 08:12:29;;;;;;;23.10;20.63;;;;;;;;;;5000432;28;20489;-11
2021/03/24 08:15:14;;;;;;;27.90;22.07;;;;;;;;;;4983664;28;20450;-11
2021/03/24 08:17:46;;;;;;;25.43;22.37;;;;;;;;;;4982155;28;20459;-10
2021/03/24 08:20:18;;;;;;;22.87;20.47;;;;;;;;;;4982213;28;20451;-11
2021/03/24 08:23:00;;;;;;;30.90;21.63;;;;;;;;;;4980968;28;20447;-11
2021/03/24 08:25:34;;;;;;;24.37;20.37;;;;;;;;;;4996442;28;20474;-11
2021/03/24 08:28:05;;;;;;;23.63;20.90;;;;;;;;;;4999707;28;20446;-11
2021/03/24 08:30:43;;;;;;;23.57;21.00;;;;;;;;;;4989576;28;20509;-10
2021/03/24 08:33:37;;;;;;;26.17;23.27;;;;;;;;;;4994193;28;20951;-10
2021/03/24 08:36:14;;;;;;;30.60;22.53;;;;;;;;;;4964008;28;20467;-11
2021/03/24 08:39:10;;;;;;;24.50;21.90;;;;;;;;;;4998764;28;20513;-11
2021/03/24 08:41:57;;;;;;;24.50;21.90;;;;;;;;;;4986656;28;20439;-11
2021/03/24 08:44:28;;;;;;;28.83;22.00;;;;;;;;;;4991953;28;20956;-10
2021/03/24 08:46:57;;;;;;;26.10;23.40;;;;;;;;;;4985011;28;20762;-10
2021/03/24 08:49:26;;;;;;;24.83;21.50;;;;;;;;;;4990284;28;20477;-11
2021/03/24 08:52:00;;;;;;;27.27;21.97;;;;;;;;;;4998079;28;20447;-11
2021/03/24 08:54:45;;;;;;;27.07;21.20;;;;;;;;;;4997069;28;20485;-11
2021/03/24 08:57:20;;;;;;;23.33;20.83;;;;;;;;;;4995471;28;20877;-11
2021/03/24 08:59:51;;;;;;;26.30;23.33;;;;;;;;;;4987947;28;21110;-11
2021/03/24 09:02:23;;;;;;;25.73;22.60;;;;;;;;;;4997837;28;20514;-11
2021/03/24 09:04:58;;;;;;;24.33;21.93;;;;;;;;;;4991372;28;20459;-11
2021/03/24 09:07:30;;;;;;;26.83;21.93;;;;;;;;;;4993450;28;20446;-11
2021/03/24 09:10:07;;;;;;;23.47;20.90;;;;;;;;;;4981407;28;20482;-10
2021/03/24 09:12:37;;;;;;;21.20;19.13;;;;;;;;;;4971674;28;20483;-11
2021/03/24 09:15:09;;;;;;;24.23;21.67;;;;;;;;;;4973895;28;20471;-10
2021/03/24 09:17:42;;;;;;;23.37;20.93;;;;;;;;;;4977887;28;20451;-11
2021/03/24 09:20:32;;;;;;;22.63;20.33;;;;;;;;;;4978354;28;20444;-11
2021/03/24 09:23:17;;;;;;;20.73;18.63;;;;;;;;;;5011843;28;20478;-11
2021/03/24 09:25:47;;;;;;;23.40;21.03;;;;;;;;;;4971474;28;20559;-10
2021/03/24 09:28:41;;;;;;;25.27;19.10;;;;;;;;;;5000403;28;20443;-11
2021/03/24 09:31:17;;;;;;;22.03;19.93;;;;;;;;;;4947376;28;20574;-11
2021/03/24 09:33:46;;;;;;;21.67;19.50;;;;;;;;;;4983232;28;20483;-10
2021/03/24 09:36:25;;;;;;;28.67;21.70;;;;;;;;;;4982430;28;20444;-12
2021/03/24 09:38:57;;;;;;;23.70;20.13;;;;;;;;;;5002404;28;21541;-10
2021/03/24 09:41:26;;;;;;;20.93;18.83;;;;;;;;;;4983755;28;20447;-11
2021/03/24 09:43:55;;;;;;;21.87;19.50;;;;;;;;;;4992367;28;20454;-11
2021/03/24 09:46:30;;;;;;;23.20;20.83;;;;;;;;;;5002135;28;20521;-11
2021/03/24 09:48:59;;;;;;;21.67;19.40;;;;;;;;;;5016348;28;20453;-10
2021/03/24 09:51:35;;;;;;;23.60;21.30;;;;;;;;;;5010744;28;20476;-12
2021/03/24 09:54:07;;;;;;;20.97;18.77;;;;;;;;;;4986603;28;20447;-11
2021/03/24 09:56:34;;;;;;;20.93;19.03;;;;;;;;;;4984088;28;20447;-10
2021/03/24 09:59:06;;;;;;;23.43;20.93;;;;;;;;;;4965660;28;20542;-11
2021/03/24 10:01:41;;;;;;;23.20;20.57;;;;;;;;;;4971406;28;20537;-11
2021/03/24 10:04:16;;;;;;;21.93;19.60;;;;;;;;;;4976602;28;20435;-11
2021/03/24 10:06:50;;;;;;;22.73;20.40;;;;;;;;;;4960186;28;20732;-11
2021/03/24 10:09:20;;;;;;;21.53;19.33;;;;;;;;;;4941677;28;20439;-11
2021/03/24 10:11:56;;;;;;;22.90;20.50;;;;;;;;;;4980369;28;20670;-10
2021/03/24 10:14:31;;;;;;;20.87;18.90;;;;;;;;;;4996219;28;20442;-13
2021/03/24 10:17:00;;;;;;;22.27;19.87;;;;;;;;;;4982471;28;20446;-13
2021/03/24 10:19:31;;;;;;;20.60;18.50;;;;;;;;;;4998958;28;20438;-13
2021/03/24 10:22:01;;;;;;;18.90;17.10;;;;;;;;;;4989982;28;20446;-12
2021/03/24 10:24:34;;;;;;;20.10;18.07;;;;;;;;;;4982182;28;20861;-12
2021/03/24 10:27:07;;;;;;;18.43;16.70;;;;;;;;;;4983328;28;20448;-11
2021/03/24 10:29:38;;;;;;;19.30;17.20;;;;;;;;;;4980724;28;20455;-11
2021/03/24 10:32:08;;;;;;;20.10;18.20;;;;;;;;;;4988349;28;20455;-11
2021/03/24 10:34:37;;;;;;;20.17;18.27;;;;;;;;;;4974904;28;20455;-11
2021/03/24 10:37:12;;;;;;;19.10;17.30;;;;;;;;;;4978250;28;21033;-11
2021/03/24 10:39:41;;;;;;;18.83;17.07;;;;;;;;;;4978382;28;20442;-10
2021/03/24 10:42:16;;;;;;;19.73;17.93;;;;;;;;;;4987760;28;20447;-10
2021/03/24 10:44:49;;;;;;;17.70;16.00;;;;;;;;;;4960642;28;20784;-11
2021/03/24 10:47:21;;;;;;;19.00;17.30;;;;;;;;;;4996524;28;20451;-13
2021/03/24 10:50:03;;;;;;;18.00;16.43;;;;;;;;;;4993895;28;20466;-11
2021/03/24 10:52:36;;;;;;;19.47;16.77;;;;;;;;;;4974334;28;20442;-11
2021/03/24 10:55:05;;;;;;;18.00;16.30;;;;;;;;;;4994598;28;20442;-11
2021/03/24 10:57:41;;;;;;;18.53;16.83;;;;;;;;;;4993973;28;20453;-13
2021/03/24 11:00:13;;;;;;;19.07;17.17;;;;;;;;;;5008745;28;20806;-10
2021/03/24 11:02:48;;;;;;;19.20;17.30;;;;;;;;;;4986539;28;20447;-12
2021/03/24 11:05:16;;;;;;;18.40;16.77;;;;;;;;;;4974297;28;20506;-13
2021/03/24 11:07:45;;;;;;;19.80;17.93;;;;;;;;;;4959704;28;20518;-14
2021/03/24 11:10:29;;;;;;;17.10;15.57;;;;;;;;;;4973384;28;20471;-13
2021/03/24 11:12:57;;;;;;;18.50;16.77;;;;;;;;;;4994939;28;20461;-13
2021/03/24 11:15:27;;;;;;;21.13;17.20;;;;;;;;;;5015710;28;20458;-13
2021/03/24 11:18:06;;;;;;;19.30;17.70;;;;;;;;;;5002388;28;20455;-10
2021/03/24 11:20:44;;;;;;;18.70;17.00;;;;;;;;;;4985116;28;20524;-10
2021/03/24 11:23:13;;;;;;;16.60;15.10;;;;;;;;;;4983773;28;21492;-12
2021/03/24 11:25:42;;;;;;;16.57;15.10;;;;;;;;;;4995357;28;20458;-12
2021/03/24 11:28:21;;;;;;;17.13;15.47;;;;;;;;;;4996888;28;20981;-12
2021/03/24 11:30:50;;;;;;;16.87;15.27;;;;;;;;;;4997841;28;20608;-13
2021/03/24 11:33:22;;;;;;;17.80;15.90;;;;;;;;;;4996649;28;20439;-12
2021/03/24 11:35:56;;;;;;;18.70;17.00;;;;;;;;;;4990527;28;21229;-12
2021/03/24 11:38:33;;;;;;;17.63;16.13;;;;;;;;;;4998474;28;20444;-12
2021/03/24 11:41:06;;;;;;;16.73;15.07;;;;;;;;;;5018344;28;20488;-11
2021/03/24 11:43:35;;;;;;;17.50;15.90;;;;;;;;;;5018752;28;20494;-13
2021/03/24 11:46:08;;;;;;;17.50;15.87;;;;;;;;;;5003977;28;20511;-10
2021/03/24 11:48:44;;;;;;;16.73;15.27;;;;;;;;;;5012254;28;20461;-13
2021/03/24 11:51:23;;;;;;;16.87;15.43;;;;;;;;;;4988694;28;20477;-12
2021/03/24 11:53:58;;;;;;;16.17;14.70;;;;;;;;;;4984354;28;20486;-12
2021/03/24 11:56:27;;;;;;;16.93;15.33;;;;;;;;;;4986255;28;20853;-12
2021/03/24 11:58:59;;;;;;;16.63;15.03;;;;;;;;;;4982672;28;20446;-12
2021/03/24 12:01:32;;;;;;;17.50;15.90;;;;;;;;;;4999518;28;20577;-11
2021/03/24 12:04:17;;;;;;;16.00;14.70;;;;;;;;;;4989472;28;20470;-12
2021/03/24 12:06:49;;;;;;;15.80;14.40;;;;;;;;;;4968627;28;20466;-12
2021/03/24 12:09:21;;;;;;;15.10;13.87;;;;;;;;;;4983082;28;20573;-12
2021/03/24 12:11:48;;;;;;;14.83;13.63;;;;;;;;;;4988582;28;20466;-11
2021/03/24 12:14:17;;;;;;;14.17;12.97;;;;;;;;;;4983958;28;21125;-11
2021/03/24 12:16:46;;;;;;;14.73;13.53;;;;;;;;;;5001589;28;20473;-12
2021/03/24 12:19:32;;;;;;;14.83;13.63;;;;;;;;;;5000312;28;20434;-11
2021/03/24 12:22:01;;;;;;;14.40;13.30;;;;;;;;;;4994789;28;20496;-12
2021/03/24 12:24:29;;;;;;;15.10;13.90;;;;;;;;;;4990766;28;20742;-12
2021/03/24 12:27:07;;;;;;;14.00;12.90;;;;;;;;;;4996134;28;20604;-12
2021/03/24 12:29:35;;;;;;;14.43;13.13;;;;;;;;;;4993044;28;21055;-11
2021/03/24 12:32:03;;;;;;;14.87;13.67;;;;;;;;;;4995886;28;20756;-13
2021/03/24 12:34:34;;;;;;;14.60;13.47;;;;;;;;;;5022931;28;20752;-13
2021/03/24 12:37:03;;;;;;;14.67;13.47;;;;;;;;;;5027171;28;20445;-13
2021/03/24 12:39:31;;;;;;;16.37;14.77;;;;;;;;;;5027567;28;20457;-13
2021/03/24 12:42:09;;;;;;;14.27;13.27;;;;;;;;;;5017489;28;20674;-12
2021/03/24 12:44:38;;;;;;;14.87;13.67;;;;;;;;;;5021739;28;20433;-11
2021/03/24 12:47:09;;;;;;;15.67;14.37;;;;;;;;;;5019290;28;20433;-12
2021/03/24 12:49:38;;;;;;;14.63;13.47;;;;;;;;;;5015745;28;20831;-12
2021/03/24 12:52:16;;;;;;;14.27;13.17;;;;;;;;;;5012344;28;20701;-12
2021/03/24 12:54:44;;;;;;;15.33;13.97;;;;;;;;;;5013127;28;21178;-12
2021/03/24 12:57:25;;;;;;;13.90;12.90;;;;;;;;;;5016791;28;20953;-12
2021/03/24 13:00:10;;;;;;;15.37;14.13;;;;;;;;;;5018230;28;20453;-11
2021/03/24 13:02:44;;;;;;;14.13;13.03;;;;;;;;;;5003072;28;21059;-12
2021/03/24 13:05:16;;;;;;;16.17;14.67;;;;;;;;;;5016349;28;21082;-12
2021/03/24 13:07:47;;;;;;;15.40;14.00;;;;;;;;;;5013720;28;20762;-12
2021/03/24 13:10:20;;;;;;;14.57;13.43;;;;;;;;;;5020107;28;20963;-12
2021/03/24 13:12:53;;;;;;;15.53;14.33;;;;;;;;;;5019343;28;20447;-11
2021/03/24 13:15:24;;;;;;;16.47;15.17;;;;;;;;;;5022198;28;20547;-12
2021/03/24 13:17:57;;;;;;;14.57;13.50;;;;;;;;;;5019041;28;20476;-10
2021/03/24 13:20:27;;;;;;;16.10;14.73;;;;;;;;;;5016337;28;20771;-11
2021/03/24 13:23:12;;;;;;;15.00;13.77;;;;;;;;;;5018791;28;20920;-12
2021/03/24 13:25:44;;;;;;;15.07;13.87;;;;;;;;;;5022342;28;20771;-12
2021/03/24 13:28:29;;;;;;;14.90;13.80;;;;;;;;;;5022208;28;20567;-12
2021/03/24 13:31:07;;;;;;;15.03;13.93;;;;;;;;;;5020059;28;20489;-11
2021/03/24 13:33:44;;;;;;;15.23;14.03;;;;;;;;;;5017824;28;20448;-12
2021/03/24 13:36:13;;;;;;;15.53;14.13;;;;;;;;;;5020627;28;21221;-11
2021/03/24 13:38:47;;;;;;;13.77;12.77;;;;;;;;;;5023271;28;20449;-11
2021/03/24 13:41:15;;;;;;;14.20;13.20;;;;;;;;;;5003783;28;20547;-10
2021/03/24 13:43:47;;;;;;;13.20;12.10;;;;;;;;;;5018487;28;20515;-11
2021/03/24 13:46:18;;;;;;;14.10;13.00;;;;;;;;;;5020908;28;20512;-11
2021/03/24 13:48:46;;;;;;;14.00;12.80;;;;;;;;;;5023607;28;20449;-10
2021/03/24 13:51:16;;;;;;;12.93;11.87;;;;;;;;;;5019153;28;20753;-11
2021/03/24 13:53:53;;;;;;;13.30;11.93;;;;;;;;;;5016106;28;20827;-12
2021/03/24 13:56:34;;;;;;;14.30;13.20;;;;;;;;;;5016098;28;20564;-13
2021/03/24 13:59:04;;;;;;;14.50;13.13;;;;;;;;;;5020011;28;21067;-12
2021/03/24 14:01:34;;;;;;;13.43;12.30;;;;;;;;;;4985036;28;20731;-12
2021/03/24 14:04:03;;;;;;;13.90;12.80;;;;;;;;;;5015473;28;20800;-12
2021/03/24 14:06:41;;;;;;;13.23;12.03;;;;;;;;;;5008515;28;20696;-12
2021/03/24 14:09:11;;;;;;;12.13;11.23;;;;;;;;;;5000238;28;20474;-12
2021/03/24 14:11:59;;;;;;;13.40;12.30;;;;;;;;;;5001292;28;20515;-12
2021/03/24 14:14:32;;;;;;;13.60;12.57;;;;;;;;;;4992733;28;20684;-12
2021/03/24 14:17:02;;;;;;;12.47;11.37;;;;;;;;;;4995131;28;20439;-11
2021/03/24 14:19:36;;;;;;;11.20;10.17;;;;;;;;;;4994646;28;20752;-12
2021/03/24 14:22:06;;;;;;;11.17;10.53;;;;;;;;;;4996370;28;20635;-11
2021/03/24 14:24:42;;;;;;;11.30;10.30;;;;;;;;;;4993104;28;20679;-12
2021/03/24 14:27:15;;;;;;;11.00;10.30;;;;;;;;;;4983454;28;20668;-13
2021/03/24 14:29:46;;;;;;;10.47;9.83;;;;;;;;;;5002089;28;20772;-11
2021/03/24 14:32:20;;;;;;;12.13;11.23;;;;;;;;;;4999014;28;20701;-10
2021/03/24 14:34:54;;;;;;;11.40;10.50;;;;;;;;;;4982028;28;20846;-12
2021/03/24 14:37:36;;;;;;;11.70;10.83;;;;;;;;;;4999419;28;20449;-12
2021/03/24 14:40:07;;;;;;;11.73;10.90;;;;;;;;;;4998810;28;20935;-12
2021/03/24 14:42:39;;;;;;;11.30;10.50;;;;;;;;;;4999889;28;20727;-12
2021/03/24 14:45:31;;;;;;;11.50;10.77;;;;;;;;;;4992731;28;20538;-12
2021/03/24 14:48:15;;;;;;;11.07;10.37;;;;;;;;;;4999663;28;20721;-12
2021/03/24 14:50:47;;;;;;;11.63;10.60;;;;;;;;;;4981725;28;20735;-12